createdAt,value
2017-08-19T00:00:40.286Z,93.50
2017-08-19T00:03:07.742Z,93.40
2017-08-19T00:05:35.235Z,93.30
2017-08-19T00:08:03.452Z,93.20
2017-08-19T00:10:30.907Z,93.20
2017-08-19T00:12:58.379Z,93.20
2017-08-19T00:15:25.860Z,93.10
2017-08-19T00:17:53.313Z,93.30
2017-08-19T00:20:20.787Z,93.30
2017-08-19T00:22:49.027Z,93.30
2017-08-19T00:25:16.487Z,93.30
2017-08-19T00:27:43.979Z,93.20
2017-08-19T00:30:12.207Z,93.00
2017-08-19T00:32:39.667Z,93.00
2017-08-19T00:35:07.150Z,92.90
2017-08-19T00:37:34.619Z,93.00
2017-08-19T00:40:02.850Z,92.80
2017-08-19T00:42:30.311Z,92.70
2017-08-19T00:44:57.767Z,92.90
2017-08-19T00:47:25.230Z,92.90
2017-08-19T00:49:52.698Z,92.90
2017-08-19T00:52:20.167Z,92.90
2017-08-19T00:54:48.411Z,92.90
2017-08-19T00:57:15.866Z,92.80
2017-08-19T00:59:43.351Z,92.90
2017-08-19T01:02:11.575Z,92.40
2017-08-19T01:04:39.046Z,92.70
2017-08-19T01:07:06.515Z,92.60
2017-08-19T01:09:33.971Z,92.50
2017-08-19T01:12:01.431Z,92.60
2017-08-19T01:14:28.898Z,92.70
2017-08-19T01:16:56.365Z,92.90
2017-08-19T01:19:24.639Z,92.90
2017-08-19T01:21:52.087Z,92.90
2017-08-19T01:24:19.542Z,92.90
2017-08-19T01:27:00.055Z,93.00
2017-08-19T01:29:27.514Z,92.90
2017-08-19T01:31:54.987Z,92.90
2017-08-19T01:34:22.451Z,93.00
2017-08-19T01:36:49.907Z,93.10
2017-08-19T01:39:17.374Z,93.10
2017-08-19T01:41:44.830Z,93.20
2017-08-19T01:44:12.302Z,93.20
2017-08-19T01:46:39.759Z,93.20
2017-08-19T01:49:07.238Z,93.30
2017-08-19T01:51:34.695Z,93.20
2017-08-19T01:54:02.918Z,93.20
2017-08-19T01:56:30.406Z,93.20
2017-08-19T01:58:57.863Z,93.10
2017-08-19T02:01:25.323Z,93.00
2017-08-19T02:03:53.563Z,93.50
2017-08-19T02:06:21.019Z,93.10
2017-08-19T02:08:48.494Z,93.10
2017-08-19T02:11:15.953Z,93.10
2017-08-19T02:13:43.434Z,93.00
2017-08-19T02:16:11.658Z,93.30
2017-08-19T02:18:39.111Z,93.00
2017-08-19T02:21:06.594Z,92.90
2017-08-19T02:23:34.050Z,93.10
2017-08-19T02:26:01.524Z,93.00
2017-08-19T02:28:29.767Z,93.00
2017-08-19T02:30:57.252Z,93.00
2017-08-19T02:33:25.476Z,93.00
2017-08-19T02:35:52.955Z,93.00
2017-08-19T02:38:20.410Z,93.00
2017-08-19T02:40:47.878Z,93.00
2017-08-19T02:43:15.338Z,93.00
2017-08-19T02:45:42.801Z,93.00
2017-08-19T02:48:10.271Z,92.90
2017-08-19T02:50:37.730Z,93.00
2017-08-19T02:53:05.966Z,93.10
2017-08-19T02:55:33.449Z,93.10
2017-08-19T02:58:00.900Z,93.20
2017-08-19T03:00:28.382Z,93.20
2017-08-19T03:02:56.602Z,93.10
2017-08-19T03:05:24.076Z,93.10
2017-08-19T03:07:51.535Z,93.00
2017-08-19T03:10:19.005Z,92.90
2017-08-19T03:12:46.464Z,92.90
2017-08-19T03:15:13.919Z,92.90
2017-08-19T03:17:41.410Z,92.90
2017-08-19T03:20:08.886Z,92.90
2017-08-19T03:22:36.354Z,92.90
2017-08-19T03:25:03.815Z,92.90
2017-08-19T03:27:31.295Z,93.00
2017-08-19T03:29:58.751Z,93.00
2017-08-19T03:32:26.222Z,93.00
2017-08-19T03:34:54.447Z,93.10
2017-08-19T03:37:21.918Z,92.90
2017-08-19T03:39:49.386Z,93.00
2017-08-19T03:42:16.851Z,92.90
2017-08-19T03:44:44.323Z,93.00
2017-08-19T03:47:12.555Z,92.80
2017-08-19T03:49:40.027Z,92.80
2017-08-19T03:52:07.486Z,92.70
2017-08-19T03:54:34.954Z,92.80
2017-08-19T03:57:02.422Z,92.80
2017-08-19T03:59:30.664Z,92.70
2017-08-19T04:01:58.119Z,92.70
2017-08-19T04:04:25.585Z,92.70
2017-08-19T04:06:53.058Z,92.60
2017-08-19T04:09:20.511Z,92.80
2017-08-19T04:11:47.971Z,92.60
2017-08-19T04:14:16.211Z,92.80
2017-08-19T04:16:43.675Z,92.60
2017-08-19T04:19:11.147Z,92.60
2017-08-19T04:21:38.602Z,92.60
2017-08-19T04:24:06.078Z,92.60
2017-08-19T04:26:34.320Z,92.90
2017-08-19T04:29:01.783Z,92.60
2017-08-19T04:31:29.262Z,92.60
2017-08-19T04:33:56.719Z,92.60
2017-08-19T04:36:24.942Z,92.80
2017-08-19T04:38:52.423Z,92.60
2017-08-19T04:41:19.908Z,92.60
2017-08-19T04:43:47.382Z,92.50
2017-08-19T04:46:15.603Z,92.40
2017-08-19T04:48:43.086Z,92.40
2017-08-19T04:51:10.538Z,92.30
2017-08-19T04:53:37.991Z,92.30
2017-08-19T04:56:05.471Z,92.20
2017-08-19T04:58:32.952Z,92.10
2017-08-19T05:01:00.419Z,92.30
2017-08-19T05:03:27.879Z,91.90
2017-08-19T05:05:55.358Z,91.90
2017-08-19T05:08:22.814Z,91.70
2017-08-19T05:10:50.274Z,91.70
2017-08-19T05:13:17.775Z,91.40
2017-08-19T05:15:45.216Z,91.40
2017-08-19T05:18:13.435Z,91.10
2017-08-19T05:20:40.911Z,91.10
2017-08-19T05:23:08.378Z,91.10
2017-08-19T05:25:35.839Z,90.90
2017-08-19T05:28:03.298Z,90.80
2017-08-19T05:30:30.772Z,90.50
2017-08-19T05:32:59.014Z,90.90
2017-08-19T05:35:26.463Z,90.50
2017-08-19T05:37:53.948Z,90.40
2017-08-19T05:40:21.399Z,90.20
2017-08-19T05:42:48.879Z,90.40
2017-08-19T05:45:17.103Z,89.90
2017-08-19T05:47:44.586Z,89.90
2017-08-19T05:50:12.065Z,89.20
2017-08-19T05:52:40.308Z,89.60
2017-08-19T05:55:07.763Z,89.60
2017-08-19T05:57:35.246Z,89.00
2017-08-19T06:00:03.474Z,88.00
2017-08-19T06:02:30.947Z,87.90
2017-08-19T06:04:58.428Z,88.20
2017-08-19T06:07:25.899Z,87.00
2017-08-19T06:09:54.143Z,86.80
2017-08-19T06:12:21.607Z,86.80
2017-08-19T06:14:49.066Z,86.80
2017-08-19T06:17:16.543Z,87.40
2017-08-19T06:19:44.772Z,86.80
2017-08-19T06:22:12.245Z,86.80
2017-08-19T06:24:39.710Z,86.40
2017-08-19T06:27:07.183Z,85.70
2017-08-19T06:29:35.403Z,85.90
2017-08-19T06:32:02.870Z,85.90
2017-08-19T06:34:30.326Z,85.00
2017-08-19T06:36:57.806Z,84.60
2017-08-19T06:39:25.265Z,84.00
2017-08-19T06:41:52.739Z,83.50
2017-08-19T06:44:20.967Z,83.60
2017-08-19T06:46:48.438Z,83.60
2017-08-19T06:49:15.919Z,83.50
2017-08-19T06:51:43.405Z,84.00
2017-08-19T06:54:10.982Z,84.70
2017-08-19T06:56:38.455Z,84.60
2017-08-19T06:59:05.915Z,84.30
2017-08-19T07:01:33.370Z,84.10
2017-08-19T07:04:00.858Z,84.00
2017-08-19T07:06:28.316Z,84.50
2017-08-19T07:08:55.791Z,84.70
2017-08-19T07:11:24.028Z,83.10
2017-08-19T07:13:51.502Z,83.20
2017-08-19T07:16:18.965Z,83.30
2017-08-19T07:18:47.196Z,82.60
2017-08-19T07:21:14.671Z,82.60
2017-08-19T07:23:42.147Z,83.20
2017-08-19T07:26:09.620Z,83.50
2017-08-19T07:28:37.855Z,84.60
2017-08-19T07:31:05.330Z,84.60
2017-08-19T07:33:32.789Z,84.20
2017-08-19T07:36:00.259Z,84.60
2017-08-19T07:38:28.491Z,90.00
2017-08-19T07:40:55.956Z,90.00
2017-08-19T07:43:23.439Z,90.80
2017-08-19T07:45:51.667Z,91.00
2017-08-19T07:48:19.133Z,91.00
2017-08-19T07:50:46.596Z,90.90
2017-08-19T07:53:14.063Z,90.70
2017-08-19T07:55:41.535Z,90.50
2017-08-19T07:58:08.999Z,90.40
2017-08-19T08:00:37.242Z,90.60
2017-08-19T08:03:04.718Z,90.60
2017-08-19T08:05:32.185Z,89.80
2017-08-19T08:07:59.655Z,89.20
2017-08-19T08:10:27.899Z,88.10
2017-08-19T08:12:55.372Z,88.10
2017-08-19T08:15:22.859Z,88.00
2017-08-19T08:17:50.327Z,88.00
2017-08-19T08:20:17.789Z,86.20
2017-08-19T08:22:45.274Z,85.20
2017-08-19T08:25:12.754Z,86.00
2017-08-19T08:27:40.991Z,86.00
2017-08-19T08:30:08.451Z,85.20
2017-08-19T08:32:36.235Z,86.00
2017-08-19T08:35:03.699Z,86.10
2017-08-19T08:37:31.180Z,85.40
2017-08-19T08:39:59.418Z,85.80
2017-08-19T08:42:26.883Z,85.90
2017-08-19T08:44:54.355Z,84.60
2017-08-19T08:47:22.578Z,84.30
2017-08-19T08:49:50.039Z,84.30
2017-08-19T08:52:17.526Z,83.60
2017-08-19T08:54:45.002Z,83.30
2017-08-19T08:57:13.214Z,82.20
2017-08-19T08:59:40.695Z,82.00
2017-08-19T09:02:08.179Z,82.60
2017-08-19T09:04:35.639Z,83.50
2017-08-19T09:07:03.863Z,80.10
2017-08-19T09:09:31.344Z,80.10
2017-08-19T09:11:58.815Z,80.80
2017-08-19T09:14:26.374Z,80.20
2017-08-19T09:16:53.836Z,79.30
2017-08-19T09:19:21.337Z,81.30
2017-08-19T09:21:48.900Z,83.10
2017-08-19T09:24:16.519Z,81.70
2017-08-19T09:26:44.007Z,82.10
2017-08-19T09:29:11.464Z,80.40
2017-08-19T09:31:38.937Z,79.30
2017-08-19T09:34:06.392Z,77.60
2017-08-19T09:36:33.871Z,73.20
2017-08-19T09:39:01.338Z,71.40
2017-08-19T09:41:28.826Z,69.00
2017-08-19T09:43:57.051Z,67.30
2017-08-19T09:46:24.527Z,67.20
2017-08-19T09:48:51.986Z,67.50
2017-08-19T09:51:19.444Z,70.70
2017-08-19T09:53:46.940Z,70.40
2017-08-19T09:56:14.418Z,70.10
2017-08-19T09:58:41.874Z,72.20
2017-08-19T10:01:09.335Z,74.30
2017-08-19T10:03:36.826Z,72.90
2017-08-19T10:06:04.288Z,73.80
2017-08-19T10:08:39.719Z,71.10
2017-08-19T10:11:20.256Z,69.20
2017-08-19T10:13:47.727Z,69.60
2017-08-19T10:16:15.182Z,69.30
2017-08-19T10:18:42.647Z,69.60
2017-08-19T10:21:10.122Z,70.00
2017-08-19T10:23:37.605Z,70.50
2017-08-19T10:26:05.839Z,68.20
2017-08-19T10:28:33.299Z,68.20
2017-08-19T10:31:00.779Z,66.20
2017-08-19T10:33:29.027Z,64.90
2017-08-19T10:35:56.562Z,64.90
2017-08-19T10:38:24.048Z,61.00
2017-08-19T10:40:51.499Z,60.60
2017-08-19T10:43:18.979Z,59.30
2017-08-19T10:45:46.592Z,59.20
2017-08-19T10:48:14.058Z,59.30
2017-08-19T10:50:41.527Z,59.70
2017-08-19T10:53:09.007Z,61.80
2017-08-19T10:55:36.475Z,62.90
2017-08-19T10:58:04.706Z,64.00
2017-08-19T11:00:32.173Z,64.00
2017-08-19T11:02:59.661Z,63.30
2017-08-19T11:05:27.898Z,55.20
2017-08-19T11:07:55.354Z,55.10
2017-08-19T11:10:22.815Z,53.20
2017-08-19T11:12:50.293Z,56.40
2017-08-19T11:15:17.763Z,57.70
2017-08-19T11:17:45.994Z,60.00
2017-08-19T11:20:13.475Z,60.10
2017-08-19T11:22:40.965Z,62.50
2017-08-19T11:25:08.439Z,63.50
2017-08-19T11:27:35.918Z,59.40
2017-08-19T11:30:03.384Z,59.00
2017-08-19T11:32:30.850Z,59.40
2017-08-19T11:34:58.324Z,62.00
2017-08-19T11:37:26.555Z,60.10
2017-08-19T11:39:54.022Z,60.00
2017-08-19T11:42:21.498Z,56.30
2017-08-19T11:44:48.978Z,56.90
2017-08-19T11:47:17.193Z,61.90
2017-08-19T11:49:44.664Z,61.70
2017-08-19T11:52:12.139Z,62.00
2017-08-19T11:54:39.600Z,62.30
2017-08-19T11:57:07.078Z,59.60
2017-08-19T11:59:35.294Z,58.60
2017-08-19T12:02:02.766Z,59.20
2017-08-19T12:04:30.231Z,56.40
2017-08-19T12:06:57.688Z,55.50
2017-08-19T12:09:25.154Z,54.80
2017-08-19T12:11:52.616Z,57.90
2017-08-19T12:14:20.093Z,59.10
2017-08-19T12:16:47.567Z,61.60
2017-08-19T12:19:15.023Z,60.70
2017-08-19T12:21:42.494Z,59.90
2017-08-19T12:24:09.959Z,60.00
2017-08-19T12:26:37.444Z,61.00
2017-08-19T12:29:04.895Z,61.20
2017-08-19T12:31:32.358Z,61.50
2017-08-19T12:33:59.833Z,61.30
2017-08-19T12:36:28.047Z,63.60
2017-08-19T12:38:55.524Z,63.90
2017-08-19T12:41:22.978Z,64.50
2017-08-19T12:43:50.463Z,65.60
2017-08-19T12:46:17.927Z,63.40
2017-08-19T12:48:45.379Z,62.30
2017-08-19T12:51:12.856Z,61.60
2017-08-19T12:53:41.100Z,61.10
2017-08-19T12:56:08.575Z,61.10
2017-08-19T12:58:36.799Z,58.80
2017-08-19T13:01:04.270Z,58.80
2017-08-19T13:03:31.734Z,59.70
2017-08-19T13:05:59.196Z,60.90
2017-08-19T13:08:26.683Z,60.20
2017-08-19T13:10:54.899Z,61.80
2017-08-19T13:13:22.354Z,61.70
2017-08-19T13:15:49.830Z,61.70
2017-08-19T13:18:17.289Z,62.20
2017-08-19T13:20:44.747Z,62.90
2017-08-19T13:23:12.235Z,61.00
2017-08-19T13:25:40.475Z,62.30
2017-08-19T13:28:07.959Z,62.30
2017-08-19T13:30:36.183Z,62.00
2017-08-19T13:33:03.639Z,61.90
2017-08-19T13:35:31.135Z,59.40
2017-08-19T13:37:58.585Z,59.20
2017-08-19T13:40:26.064Z,58.10
2017-08-19T13:42:54.314Z,55.70
2017-08-19T13:45:21.771Z,55.60
2017-08-19T13:47:49.246Z,54.70
2017-08-19T13:50:17.488Z,55.50
2017-08-19T13:52:45.012Z,55.50
2017-08-19T13:55:12.459Z,55.80
2017-08-19T13:57:39.937Z,57.30
2017-08-19T14:00:07.399Z,57.70
2017-08-19T14:02:34.916Z,58.70
2017-08-19T14:05:03.140Z,61.60
2017-08-19T14:07:30.583Z,61.50
2017-08-19T14:09:58.063Z,62.70
2017-08-19T14:12:25.527Z,62.50
2017-08-19T14:14:52.975Z,63.80
2017-08-19T14:17:20.461Z,66.10
2017-08-19T14:19:47.923Z,67.30
2017-08-19T14:22:16.167Z,69.60
2017-08-19T14:24:43.618Z,69.60
2017-08-19T14:27:11.088Z,72.60
2017-08-19T14:29:38.550Z,74.20
2017-08-19T14:32:06.022Z,77.40
2017-08-19T14:34:34.270Z,81.40
2017-08-19T14:37:01.745Z,81.30
2017-08-19T14:39:29.242Z,81.80
2017-08-19T14:41:56.700Z,83.50
2017-08-19T14:44:24.191Z,86.30
2017-08-19T14:46:51.654Z,87.50
2017-08-19T14:49:19.108Z,89.70
2017-08-19T14:51:46.598Z,89.30
2017-08-19T14:54:14.823Z,88.90
2017-08-19T14:56:42.299Z,88.80
2017-08-19T14:59:09.754Z,89.90
2017-08-19T15:01:37.215Z,89.30
2017-08-19T15:04:04.686Z,87.90
2017-08-19T15:06:32.931Z,84.70
2017-08-19T15:09:00.409Z,83.90
2017-08-19T15:11:27.871Z,83.50
2017-08-19T15:13:55.370Z,84.00
2017-08-19T15:16:22.839Z,82.30
2017-08-19T15:18:50.298Z,79.80
2017-08-19T15:21:17.771Z,79.30
2017-08-19T15:23:46.054Z,77.90
2017-08-19T15:26:13.536Z,79.00
2017-08-19T15:28:41.760Z,78.70
2017-08-19T15:31:09.227Z,78.50
2017-08-19T15:33:36.699Z,78.70
2017-08-19T15:36:04.159Z,80.30
2017-08-19T15:38:31.630Z,81.50
2017-08-19T15:40:59.119Z,80.00
2017-08-19T15:43:26.567Z,80.10
2017-08-19T15:45:54.041Z,80.50
2017-08-19T15:48:21.490Z,79.70
2017-08-19T15:50:48.956Z,80.70
2017-08-19T15:53:16.431Z,79.00
2017-08-19T15:55:43.885Z,80.00
2017-08-19T15:58:11.347Z,79.70
2017-08-19T16:00:38.815Z,77.80
2017-08-19T16:03:06.300Z,78.10
2017-08-19T16:05:34.522Z,77.90
2017-08-19T16:08:02.006Z,77.80
2017-08-19T16:10:29.486Z,77.70
2017-08-19T16:12:56.939Z,77.90
2017-08-19T16:15:24.431Z,78.60
2017-08-19T16:17:51.919Z,78.40
2017-08-19T16:20:19.375Z,77.80
2017-08-19T16:22:46.854Z,78.60
2017-08-19T16:25:14.323Z,78.90
2017-08-19T16:27:41.776Z,79.00
2017-08-19T16:30:10.110Z,78.60
2017-08-19T16:32:37.591Z,78.90
2017-08-19T16:35:05.083Z,78.80
2017-08-19T16:37:33.308Z,79.70
2017-08-19T16:40:00.767Z,79.70
2017-08-19T16:42:28.247Z,78.90
2017-08-19T16:44:55.698Z,79.20
2017-08-19T16:47:23.162Z,78.60
2017-08-19T16:49:50.642Z,77.60
2017-08-19T16:52:18.871Z,79.40
2017-08-19T16:54:46.347Z,79.40
2017-08-19T16:57:13.816Z,79.20
2017-08-19T16:59:42.065Z,78.90
2017-08-19T17:02:09.517Z,78.90
2017-08-19T17:04:36.990Z,77.30
2017-08-19T17:07:04.474Z,76.80
2017-08-19T17:09:32.703Z,76.00
2017-08-19T17:12:00.716Z,76.00
2017-08-19T17:14:28.940Z,77.30
2017-08-19T17:16:56.398Z,77.30
2017-08-19T17:19:23.875Z,77.00
2017-08-19T17:21:51.322Z,77.30
2017-08-19T17:24:18.792Z,77.60
2017-08-19T17:26:46.271Z,77.90
2017-08-19T17:29:14.504Z,78.40
2017-08-19T17:31:42.003Z,78.50
2017-08-19T17:34:09.495Z,78.60
2017-08-19T17:36:36.950Z,78.70
2017-08-19T17:39:04.424Z,78.70
2017-08-19T17:41:31.894Z,78.60
2017-08-19T17:43:59.355Z,79.40
2017-08-19T17:46:26.828Z,78.90
2017-08-19T17:48:54.298Z,79.30
2017-08-19T17:51:22.534Z,79.60
2017-08-19T17:53:50.035Z,79.50
2017-08-19T17:56:18.300Z,79.30
2017-08-19T17:58:46.753Z,78.80
2017-08-19T18:01:14.224Z,78.80
2017-08-19T18:03:42.229Z,79.30
2017-08-19T18:06:09.909Z,79.70
2017-08-19T18:08:37.572Z,80.40
2017-08-19T18:11:06.434Z,80.60
2017-08-19T18:13:34.220Z,81.00
2017-08-19T18:16:02.151Z,81.10
2017-08-19T18:18:30.381Z,81.60
2017-08-19T18:20:57.841Z,81.60
2017-08-19T18:23:25.581Z,82.60
2017-08-19T18:25:53.052Z,82.80
2017-08-19T18:28:20.658Z,83.30
2017-08-19T18:30:48.919Z,84.80
2017-08-19T18:33:17.880Z,84.10
2017-08-19T18:35:45.956Z,85.40
2017-08-19T18:38:13.519Z,85.30
2017-08-19T18:40:41.101Z,85.80
2017-08-19T18:43:09.048Z,86.30
2017-08-19T18:45:36.593Z,87.00
2017-08-19T18:48:04.189Z,87.50
2017-08-19T18:50:32.667Z,88.10
2017-08-19T18:53:00.136Z,88.50
2017-08-19T18:55:28.376Z,89.00
2017-08-19T18:57:55.855Z,88.90
2017-08-19T19:00:23.323Z,89.50
2017-08-19T19:02:50.802Z,89.80
2017-08-19T19:05:18.278Z,89.40
2017-08-19T19:07:45.747Z,89.70
2017-08-19T19:10:13.214Z,89.70
2017-08-19T19:12:40.706Z,89.50
2017-08-19T19:15:08.939Z,89.60
2017-08-19T19:17:36.403Z,89.60
2017-08-19T19:20:03.886Z,90.00
2017-08-19T19:22:31.389Z,89.70
2017-08-19T19:24:58.851Z,89.70
2017-08-19T19:27:26.351Z,89.80
2017-08-19T19:29:53.811Z,90.00
2017-08-19T19:32:21.268Z,90.00
2017-08-19T19:34:48.738Z,90.00
2017-08-19T19:37:16.962Z,90.00
2017-08-19T19:39:44.452Z,90.00
2017-08-19T19:42:11.903Z,90.20
2017-08-19T19:44:39.359Z,90.20
2017-08-19T19:47:06.832Z,90.20
2017-08-19T19:49:35.054Z,90.60
2017-08-19T19:52:02.605Z,90.50
2017-08-19T19:54:30.062Z,90.60
2017-08-19T19:56:57.547Z,90.70
2017-08-19T19:59:25.012Z,91.00
2017-08-19T20:01:52.491Z,91.20
2017-08-19T20:04:20.743Z,91.40
2017-08-19T20:06:48.210Z,91.40
2017-08-19T20:09:15.742Z,91.40
2017-08-19T20:11:43.215Z,91.60
2017-08-19T20:14:10.664Z,91.70
2017-08-19T20:16:38.142Z,91.80
2017-08-19T20:19:05.619Z,91.80
2017-08-19T20:21:33.923Z,91.70
2017-08-19T20:24:01.378Z,91.70
2017-08-19T20:26:28.871Z,91.80
2017-08-19T20:28:56.319Z,92.00
2017-08-19T20:31:23.790Z,92.10
2017-08-19T20:33:51.250Z,92.00
2017-08-19T20:36:18.717Z,92.10
2017-08-19T20:38:46.218Z,92.10
2017-08-19T20:41:13.684Z,92.20
2017-08-19T20:43:41.176Z,92.40
2017-08-19T20:46:08.659Z,92.60
2017-08-19T20:48:36.899Z,92.70
2017-08-19T20:51:04.372Z,92.70
2017-08-19T20:53:31.848Z,92.60
2017-08-19T20:56:00.075Z,92.60
2017-08-19T20:58:27.531Z,92.60
2017-08-19T21:00:55.015Z,92.40
2017-08-19T21:03:22.470Z,92.40
2017-08-19T21:05:49.948Z,92.30
2017-08-19T21:08:18.253Z,92.30
2017-08-19T21:10:45.812Z,92.30
2017-08-19T21:13:13.273Z,92.00
2017-08-19T21:15:40.826Z,91.90
2017-08-19T21:18:08.291Z,91.70
2017-08-19T21:20:35.752Z,91.60
2017-08-19T21:23:03.235Z,91.70
2017-08-19T21:25:30.695Z,91.60
2017-08-19T21:27:58.155Z,91.60
2017-08-19T21:30:25.624Z,91.40
2017-08-19T21:32:53.843Z,91.70
2017-08-19T21:35:21.314Z,91.50
2017-08-19T21:37:48.771Z,91.40
2017-08-19T21:40:16.248Z,91.40
2017-08-19T21:42:43.734Z,91.20
2017-08-19T21:45:11.950Z,91.10
2017-08-19T21:47:39.423Z,91.10
2017-08-19T21:50:06.904Z,91.00
2017-08-19T21:52:34.362Z,91.00
2017-08-19T21:55:02.608Z,91.20
2017-08-19T21:57:30.071Z,91.20
2017-08-19T21:59:57.530Z,91.10
2017-08-19T22:02:24.999Z,91.00
2017-08-19T22:04:52.463Z,91.20
2017-08-19T22:07:19.930Z,91.40
2017-08-19T22:09:48.158Z,91.40
2017-08-19T22:12:15.634Z,91.40
2017-08-19T22:14:43.099Z,91.70
2017-08-19T22:17:10.579Z,91.40
2017-08-19T22:19:38.878Z,91.40
2017-08-19T22:22:06.405Z,91.40
2017-08-19T22:24:34.650Z,91.40
2017-08-19T22:27:02.107Z,91.30
2017-08-19T22:29:29.566Z,91.50
2017-08-19T22:31:57.038Z,91.50
2017-08-19T22:34:24.499Z,91.40
2017-08-19T22:36:51.975Z,91.50
2017-08-19T22:39:20.203Z,91.40
2017-08-19T22:41:47.671Z,91.40
2017-08-19T22:44:15.114Z,91.30
2017-08-19T22:46:42.603Z,91.30
2017-08-19T22:49:10.839Z,91.20
2017-08-19T22:51:38.310Z,91.20
2017-08-19T22:54:05.783Z,91.10
2017-08-19T22:56:33.251Z,91.20
2017-08-19T22:59:01.466Z,91.40
2017-08-19T23:01:28.939Z,91.40
2017-08-19T23:03:56.395Z,91.30
2017-08-19T23:06:23.862Z,91.00
2017-08-19T23:08:51.332Z,90.80
2017-08-19T23:11:18.788Z,90.90
2017-08-19T23:13:46.243Z,90.60
2017-08-19T23:16:13.727Z,90.50
2017-08-19T23:18:41.950Z,90.40
2017-08-19T23:21:09.407Z,90.40
2017-08-19T23:23:36.875Z,90.30
2017-08-19T23:26:04.331Z,90.20
2017-08-19T23:28:31.807Z,89.80
2017-08-19T23:30:59.263Z,89.90
2017-08-19T23:33:26.742Z,89.70
2017-08-19T23:35:54.248Z,89.50
2017-08-19T23:38:21.700Z,89.50
2017-08-19T23:40:49.174Z,89.90
2017-08-19T23:43:16.651Z,89.40
2017-08-19T23:45:44.886Z,89.30
2017-08-19T23:48:12.345Z,89.30
2017-08-19T23:50:39.819Z,89.00
2017-08-19T23:53:07.290Z,89.60
2017-08-19T23:55:34.751Z,88.60
2017-08-19T23:58:03.014Z,89.30
